Estación Meteorológica Peña el Pijo (Robertgarden) [ 12/10/18 11:34:33 CET ]

Fecha Hora Presion(HPa) Temp (°C) Humedad % Rocio (°C) Viento ( m/s) Direccion Lluvia 1Hora(mm) Lluvia 24H(mm) LLuvia Total(mm)
2018-Aug-05 01:01:31 1014.200 18.5 61 10.8         269.36
2018-Aug-05 02:01:34 1013.800 17.4 64 10.5         269.36
2018-Aug-05 03:01:25 1014.000 16.6 67 10.4         269.36
2018-Aug-05 04:01:28 1013.800 15.8 69 10.2         269.36
2018-Aug-05 05:01:25 1013.500 15.5 70 10.1         269.36
2018-Aug-05 06:01:27 1012.900 16.1 70 10.7         269.36
2018-Aug-05 07:01:47 1013.000 15.3 72 10.3         269.36
2018-Aug-05 08:01:50 1013.200 15.4 73 10.6         269.36
2018-Aug-05 09:01:52 1013.400 21.1 65 14.2         269.36
2018-Aug-05 10:01:45 1013.200 27.4 49 15.7         269.36
2018-Aug-05 11:02:00 1013.100 33.1 31 13.7         269.36
2018-Aug-05 12:01:46 1013.200 34.8 28 13.5         269.36
2018-Aug-05 13:01:51 1012.900 35.4 24 11.5 0.3 NE     269.36
2018-Aug-05 14:01:51 1012.500 34.6 24 10.8         269.36
2018-Aug-05 15:01:51 1012.400 32.9 25 10.1         269.36
2018-Aug-05 16:01:50 1012.100 33.1 26 10.8         269.36
2018-Aug-05 17:02:08 1011.500 32.5 27 10.9         269.36
2018-Aug-05 18:01:35 1011.700 31.5 28 10.7         269.36
2018-Aug-05 19:01:42 1011.700 30.9 31 11.8         269.36
2018-Aug-05 20:01:56 1011.900 29.0 34 11.5         269.36
2018-Aug-05 21:01:42 1012.000 27.2 36 10.8         269.36
2018-Aug-05 22:01:51 1012.800 25.3 40 10.8         269.36
2018-Aug-05 23:01:41 1012.900 22.3 46 10.0         269.36

Temperatura Máxima:35°    Temperatura Mínima:15°
Presión Máxima:1014.200 Hpa    Presión Mínima:1011.500 Hpa


Volver